Time;durP1;ratioP1;P1;durP2;ratioP2;P2;SDS_P1;SDS_P2;PMS_P1;PMS_P2;Temp;Humidity;BMP_temperature;BMP_pressure;BME280_temperature;BME280_humidity;BME280_pressure;Samples;Min_cycle;Max_cycle;Signal;HPM_P1;HPM_P2
2023/05/09 00:01:57;;;;;;;16.40;7.33;;;14.30;99.90;;;;;;4954120;28;20270;-83
2023/05/09 00:04:23;;;;;;;18.87;7.43;;;14.30;99.90;;;;;;4954212;28;20216;-82
2023/05/09 00:06:49;;;;;;;12.30;7.50;;;14.20;99.90;;;;;;4970175;28;20185;-82
2023/05/09 00:09:16;;;;;;;15.23;6.73;;;14.20;99.90;;;;;;4970635;28;20246;-82
2023/05/09 00:11:42;;;;;;;14.47;7.23;;;14.20;99.90;;;;;;4969973;28;20217;-82
2023/05/09 00:14:09;;;;;;;11.60;6.83;;;14.20;99.90;;;;;;4970010;28;20220;-82
2023/05/09 00:16:35;;;;;;;13.93;8.27;;;14.20;99.90;;;;;;4969935;28;20244;-82
2023/05/09 00:19:02;;;;;;;15.07;7.83;;;14.20;99.90;;;;;;4953960;28;20229;-82
2023/05/09 00:21:29;;;;;;;16.00;7.67;;;14.20;99.90;;;;;;4971496;28;20268;-82
2023/05/09 00:23:55;;;;;;;11.33;7.03;;;14.10;99.90;;;;;;4971237;28;20224;-82
2023/05/09 00:26:22;;;;;;;15.23;7.43;;;14.10;99.90;;;;;;4954096;28;20240;-82
2023/05/09 00:28:48;;;;;;;13.13;6.90;;;14.20;99.90;;;;;;4969740;28;20289;-82
2023/05/09 00:31:14;;;;;;;17.57;7.10;;;14.20;99.90;;;;;;4953547;28;20224;-82
2023/05/09 00:33:39;;;;;;;14.30;7.30;;;14.10;99.90;;;;;;4971378;28;20316;-82
2023/05/09 00:36:05;;;;;;;12.30;8.90;;;14.00;99.90;;;;;;4969609;28;20390;-82
2023/05/09 00:38:31;;;;;;;15.07;8.17;;;14.00;99.90;;;;;;4953573;28;20805;-82
2023/05/09 00:40:57;;;;;;;19.37;7.83;;;14.00;99.90;;;;;;4937639;28;20299;-82
2023/05/09 00:43:23;;;;;;;9.87;7.20;;;14.00;99.90;;;;;;4952885;28;20557;-81
2023/05/09 00:45:49;;;;;;;13.70;6.60;;;13.90;99.90;;;;;;4938147;28;20185;-82
2023/05/09 00:48:15;;;;;;;13.93;6.20;;;13.80;99.90;;;;;;4969543;28;20212;-82
2023/05/09 00:50:41;;;;;;;10.80;7.33;;;13.80;99.90;;;;;;4937058;28;20305;-83
2023/05/09 00:53:08;;;;;;;14.33;6.87;;;13.80;99.90;;;;;;4970294;28;20220;-82
2023/05/09 00:55:34;;;;;;;15.00;7.30;;;13.80;99.90;;;;;;4969111;28;20311;-82
2023/05/09 00:58:01;;;;;;;14.17;7.17;;;13.80;99.90;;;;;;4953295;28;20705;-82
2023/05/09 01:00:27;;;;;;;15.07;6.63;;;13.80;99.90;;;;;;4969602;28;20350;-81
2023/05/09 01:02:54;;;;;;;12.77;7.43;;;13.80;99.90;;;;;;4970346;28;20324;-81
2023/05/09 01:05:23;;;;;;;15.43;7.97;;;13.80;99.90;;;;;;4970311;28;20221;-82
2023/05/09 01:08:29;;;;;;;18.23;8.67;;;13.80;99.90;;;;;;4970205;28;20311;-81
2023/05/09 01:11:03;;;;;;;16.40;7.97;;;13.80;99.90;;;;;;4970092;28;20299;-82
2023/05/09 01:13:43;;;;;;;14.03;7.53;;;13.80;99.90;;;;;;4969244;28;20255;-82
2023/05/09 01:16:19;;;;;;;11.77;7.37;;;13.70;99.90;;;;;;4968885;28;20639;-83
2023/05/09 01:18:53;;;;;;;18.40;7.40;;;13.70;99.90;;;;;;4970447;28;20287;-82
2023/05/09 01:21:29;;;;;;;15.53;6.90;;;13.70;99.90;;;;;;4969062;28;20674;-83
2023/05/09 01:24:33;;;;;;;11.07;6.90;;;13.70;99.90;;;;;;4968486;28;20224;-83
2023/05/09 01:27:13;;;;;;;16.97;8.17;;;13.70;99.90;;;;;;4969350;28;20230;-81
2023/05/09 01:29:43;;;;;;;16.90;9.17;;;13.70;99.90;;;;;;4968669;28;20216;-81
2023/05/09 01:32:25;;;;;;;12.60;7.80;;;13.60;99.90;;;;;;4968714;28;20232;-83
2023/05/09 01:34:54;;;;;;;16.50;7.23;;;13.60;99.90;;;;;;4968525;28;20224;-82
2023/05/09 01:37:28;;;;;;;10.60;7.50;;;13.60;99.90;;;;;;4969594;28;20705;-82
2023/05/09 01:39:58;;;;;;;15.23;7.30;;;13.60;99.90;;;;;;4969629;28;20153;-82
2023/05/09 01:42:28;;;;;;;11.53;7.93;;;13.70;99.90;;;;;;4970254;28;20173;-82
2023/05/09 01:44:55;;;;;;;18.57;8.20;;;13.60;99.90;;;;;;4967965;28;20221;-83
2023/05/09 01:47:22;;;;;;;13.50;6.20;;;13.60;99.90;;;;;;4952336;28;20224;-83
2023/05/09 01:49:49;;;;;;;16.33;8.07;;;13.60;99.90;;;;;;4968240;28;20220;-82
2023/05/09 01:52:18;;;;;;;15.93;8.30;;;13.70;99.90;;;;;;4967994;28;20236;-83
2023/05/09 01:54:44;;;;;;;20.43;9.33;;;13.70;99.90;;;;;;4967127;28;20544;-83
2023/05/09 01:57:11;;;;;;;19.63;9.13;;;13.70;99.90;;;;;;4969464;28;20224;-82
2023/05/09 01:59:43;;;;;;;15.27;9.23;;;13.80;99.90;;;;;;4967720;28;20252;-83
2023/05/09 02:02:10;;;;;;;13.43;8.03;;;13.80;99.90;;;;;;4967840;28;20231;-83
2023/05/09 02:04:37;;;;;;;10.87;7.60;;;13.80;99.90;;;;;;4951299;28;20212;-82
2023/05/09 02:07:05;;;;;;;18.50;8.23;;;13.80;99.90;;;;;;4968194;28;20251;-82
2023/05/09 02:09:31;;;;;;;13.47;7.63;;;13.80;99.90;;;;;;4952102;28;20184;-81
2023/05/09 02:11:57;;;;;;;14.00;7.80;;;13.90;99.90;;;;;;4951811;28;20849;-82
2023/05/09 02:14:22;;;;;;;13.43;7.40;;;13.90;99.90;;;;;;4951890;28;20304;-83
2023/05/09 02:16:48;;;;;;;16.47;8.33;;;13.90;99.90;;;;;;4968531;28;20240;-83
2023/05/09 02:19:15;;;;;;;17.20;7.27;;;13.90;99.90;;;;;;4951833;28;20736;-83
2023/05/09 02:21:41;;;;;;;12.00;7.53;;;13.90;99.90;;;;;;4952043;28;20181;-82
2023/05/09 02:24:07;;;;;;;17.33;9.40;;;14.00;99.90;;;;;;4967720;28;20294;-82
2023/05/09 02:26:34;;;;;;;20.80;7.57;;;14.00;99.90;;;;;;4951748;28;20224;-82
2023/05/09 02:29:02;;;;;;;17.90;8.53;;;14.00;99.90;;;;;;4967712;28;20263;-82
2023/05/09 02:31:29;;;;;;;15.27;7.50;;;14.00;99.90;;;;;;4951513;28;20247;-82
2023/05/09 02:33:55;;;;;;;18.97;8.60;;;14.00;99.90;;;;;;4968346;28;20185;-83
2023/05/09 02:36:22;;;;;;;20.73;8.67;;;14.00;99.90;;;;;;4968883;28;20208;-82
2023/05/09 02:38:48;;;;;;;11.57;7.07;;;14.00;99.90;;;;;;4951120;28;20267;-82
2023/05/09 02:41:15;;;;;;;13.90;7.80;;;14.00;99.90;;;;;;4951660;28;20216;-83
2023/05/09 02:43:41;;;;;;;18.43;8.67;;;14.00;99.90;;;;;;4967079;28;20213;-82
2023/05/09 02:46:10;;;;;;;15.50;8.13;;;14.00;99.90;;;;;;4967481;28;20188;-83
2023/05/09 02:48:36;;;;;;;22.87;8.83;;;14.00;99.90;;;;;;4967516;28;20280;-82
2023/05/09 02:51:02;;;;;;;20.23;9.17;;;14.00;99.90;;;;;;4966841;28;20717;-83
2023/05/09 02:53:27;;;;;;;13.83;8.23;;;14.00;99.90;;;;;;4950787;28;20255;-82
2023/05/09 02:55:53;;;;;;;16.37;8.37;;;14.00;99.90;;;;;;4966786;28;20289;-82
2023/05/09 02:58:19;;;;;;;14.97;6.47;;;14.00;99.90;;;;;;4966991;28;20274;-82
2023/05/09 03:00:45;;;;;;;15.13;8.50;;;14.00;99.90;;;;;;4967198;28;20765;-82
2023/05/09 03:03:11;;;;;;;19.90;7.70;;;14.00;99.90;;;;;;4967148;28;20307;-82
2023/05/09 03:05:37;;;;;;;18.87;7.40;;;13.90;99.90;;;;;;4966464;28;20344;-82
2023/05/09 03:08:03;;;;;;;21.43;8.80;;;13.90;99.90;;;;;;4966495;28;20317;-82
2023/05/09 03:10:29;;;;;;;11.60;7.57;;;13.90;99.90;;;;;;4966760;28;20216;-81
2023/05/09 03:12:55;;;;;;;18.87;7.23;;;13.90;99.90;;;;;;4968012;28;20211;-82
2023/05/09 03:15:20;;;;;;;23.13;9.30;;;13.90;99.90;;;;;;4951405;28;20189;-83
2023/05/09 03:17:47;;;;;;;14.03;9.70;;;13.90;99.90;;;;;;4950891;28;20701;-82
2023/05/09 03:20:14;;;;;;;19.77;10.23;;;13.90;99.90;;;;;;4967930;28;20725;-82
2023/05/09 03:22:40;;;;;;;12.70;9.33;;;13.90;99.90;;;;;;4966312;28;20275;-82
2023/05/09 03:25:06;;;;;;;23.37;11.40;;;13.90;99.90;;;;;;4950591;28;20173;-81
2023/05/09 03:27:32;;;;;;;17.10;9.30;;;14.00;99.90;;;;;;4951168;28;20689;-81
2023/05/09 03:29:57;;;;;;;14.63;9.73;;;14.00;99.90;;;;;;4967023;28;20308;-82
2023/05/09 03:32:23;;;;;;;27.30;10.30;;;14.00;99.90;;;;;;4966509;28;20220;-81
2023/05/09 03:34:49;;;;;;;21.40;9.23;;;14.00;99.90;;;;;;4965938;28;20255;-82
2023/05/09 03:37:15;;;;;;;22.07;10.77;;;14.00;99.90;;;;;;4966856;28;20704;-82
2023/05/09 03:39:43;;;;;;;19.10;9.70;;;14.00;99.90;;;;;;4967278;28;20223;-83
2023/05/09 03:42:09;;;;;;;23.70;11.30;;;14.00;99.90;;;;;;4966765;28;20263;-83
2023/05/09 03:44:35;;;;;;;18.73;10.50;;;14.00;99.90;;;;;;4951203;28;20221;-83
2023/05/09 03:47:01;;;;;;;17.50;10.60;;;14.00;99.90;;;;;;4966576;28;20696;-82
2023/05/09 03:49:27;;;;;;;19.53;10.77;;;14.00;99.90;;;;;;4967373;28;20228;-82
2023/05/09 03:51:53;;;;;;;21.00;10.90;;;14.00;99.90;;;;;;4940525;28;20236;-80
2023/05/09 03:54:18;;;;;;;28.10;10.43;;;14.10;99.90;;;;;;4982700;28;20193;-83
2023/05/09 03:56:44;;;;;;;31.90;9.97;;;14.10;99.90;;;;;;4966171;28;20303;-82
2023/05/09 03:59:10;;;;;;;36.07;12.90;;;14.00;99.90;;;;;;4966006;28;20283;-82
2023/05/09 04:01:35;;;;;;;21.43;8.83;;;14.00;99.90;;;;;;4967479;28;20299;-81
2023/05/09 04:04:01;;;;;;;20.27;11.93;;;14.10;99.90;;;;;;4966231;28;20192;-81
2023/05/09 04:06:28;;;;;;;18.33;10.17;;;14.10;99.90;;;;;;4950829;28;20181;-82
2023/05/09 04:08:54;;;;;;;26.80;9.87;;;14.10;99.90;;;;;;4966168;28;20233;-82
2023/05/09 04:11:20;;;;;;;20.37;9.87;;;14.10;99.90;;;;;;4965985;28;20708;-82
2023/05/09 04:13:46;;;;;;;21.73;10.33;;;14.10;99.90;;;;;;4966216;28;20228;-83
2023/05/09 04:16:12;;;;;;;22.80;10.87;;;14.20;99.90;;;;;;4966518;28;20686;-81
2023/05/09 04:18:41;;;;;;;22.90;10.00;;;14.20;99.90;;;;;;4951806;28;20780;-82
2023/05/09 04:21:07;;;;;;;21.83;11.63;;;14.20;99.90;;;;;;4969463;28;20889;-81
2023/05/09 04:23:32;;;;;;;22.43;10.40;;;14.20;99.90;;;;;;4953633;28;20216;-81
2023/05/09 04:25:58;;;;;;;24.00;11.40;;;14.30;99.90;;;;;;4953260;28;20212;-81
2023/05/09 04:28:27;;;;;;;26.60;11.10;;;14.30;99.90;;;;;;4969585;28;20239;-81
2023/05/09 04:30:53;;;;;;;29.77;11.23;;;14.30;99.90;;;;;;4969416;28;20185;-81
2023/05/09 04:33:18;;;;;;;24.67;10.67;;;14.20;99.90;;;;;;4954309;28;20280;-82
2023/05/09 04:35:44;;;;;;;18.43;10.37;;;14.30;99.90;;;;;;4953534;28;20220;-82
2023/05/09 04:38:13;;;;;;;29.93;13.70;;;14.20;99.90;;;;;;4946014;28;20240;-82
2023/05/09 04:40:38;;;;;;;24.87;11.63;;;14.30;99.90;;;;;;4953074;28;20311;-82
2023/05/09 04:43:05;;;;;;;20.77;10.97;;;14.30;99.90;;;;;;4969332;28;20763;-82
2023/05/09 04:45:33;;;;;;;31.57;13.17;;;14.30;99.90;;;;;;4954175;28;20212;-82
2023/05/09 04:47:59;;;;;;;28.37;11.93;;;14.30;99.90;;;;;;4970415;28;20251;-80
2023/05/09 04:50:25;;;;;;;22.63;13.37;;;14.30;99.90;;;;;;4953441;28;20236;-83
2023/05/09 04:52:51;;;;;;;23.63;11.40;;;14.30;99.90;;;;;;4952963;28;20604;-82
2023/05/09 04:55:16;;;;;;;25.57;11.57;;;14.30;99.90;;;;;;4969102;28;20255;-82
2023/05/09 04:57:42;;;;;;;30.67;12.53;;;14.30;99.90;;;;;;4953253;28;20212;-82
2023/05/09 05:00:10;;;;;;;21.23;10.10;;;14.40;99.90;;;;;;4969154;28;20851;-82
2023/05/09 05:02:36;;;;;;;23.90;11.53;;;14.30;99.90;;;;;;4953095;28;20380;-81
2023/05/09 05:05:02;;;;;;;26.60;11.50;;;14.30;99.90;;;;;;4968788;28;20925;-81
2023/05/09 05:07:27;;;;;;;25.37;13.27;;;14.40;99.90;;;;;;4968559;28;20554;-82
2023/05/09 05:09:53;;;;;;;25.20;10.93;;;14.40;99.90;;;;;;4952461;28;20193;-82
2023/05/09 05:12:19;;;;;;;26.37;13.30;;;14.40;99.90;;;;;;4969147;28;20181;-81
2023/05/09 05:14:44;;;;;;;27.80;12.10;;;14.50;99.90;;;;;;4952490;28;20271;-82
2023/05/09 05:17:10;;;;;;;20.37;10.97;;;14.50;99.90;;;;;;4952607;28;20706;-82
2023/05/09 05:19:36;;;;;;;20.70;10.87;;;14.50;99.90;;;;;;4968151;28;20227;-82
2023/05/09 05:22:02;;;;;;;28.90;12.23;;;14.60;99.90;;;;;;4968608;28;20189;-81
2023/05/09 05:24:27;;;;;;;28.53;14.10;;;14.60;99.90;;;;;;4953183;28;20212;-82
2023/05/09 05:26:53;;;;;;;31.70;12.83;;;14.70;99.90;;;;;;4969176;28;20781;-82
2023/05/09 05:29:19;;;;;;;32.50;14.50;;;14.80;99.90;;;;;;4968923;28;20216;-82
2023/05/09 05:31:45;;;;;;;33.60;12.63;;;14.90;99.90;;;;;;4968501;28;20220;-83
2023/05/09 05:34:10;;;;;;;35.60;14.20;;;14.90;99.90;;;;;;4968801;28;20666;-83
2023/05/09 05:36:36;;;;;;;28.07;13.50;;;15.00;99.90;;;;;;4968826;28;20264;-83
2023/05/09 05:39:02;;;;;;;36.00;13.53;;;15.00;99.90;;;;;;4969032;28;20382;-83
2023/05/09 05:41:28;;;;;;;36.97;14.47;;;15.00;99.90;;;;;;4969452;28;20224;-83
2023/05/09 05:43:53;;;;;;;37.80;14.63;;;15.00;99.90;;;;;;4968118;28;20220;-82
2023/05/09 05:46:19;;;;;;;38.97;14.27;;;15.10;99.90;;;;;;4968249;28;20632;-82
2023/05/09 05:48:45;;;;;;;34.57;12.77;;;15.10;99.90;;;;;;4968853;28;20272;-83
2023/05/09 05:51:10;;;;;;;36.00;15.70;;;15.20;99.90;;;;;;4968169;28;20228;-82
2023/05/09 05:53:36;;;;;;;32.70;13.97;;;15.30;99.90;;;;;;4951677;28;20220;-82
2023/05/09 05:56:02;;;;;;;32.17;12.27;;;15.30;99.90;;;;;;4952067;28;20308;-83
2023/05/09 05:58:28;;;;;;;31.03;13.37;;;15.30;99.90;;;;;;4966734;28;20228;-82
2023/05/09 06:00:53;;;;;;;44.73;14.57;;;15.30;99.90;;;;;;4966100;28;20181;-84
2023/05/09 06:03:19;;;;;;;34.43;14.77;;;15.40;99.90;;;;;;4951470;28;20181;-82
2023/05/09 06:05:46;;;;;;;37.03;13.47;;;15.40;99.90;;;;;;4950635;28;20303;-83
2023/05/09 06:08:12;;;;;;;30.00;13.40;;;15.40;99.90;;;;;;4967049;28;20240;-82
2023/05/09 06:10:38;;;;;;;27.90;13.90;;;15.40;99.90;;;;;;4951552;28;20248;-82
2023/05/09 06:13:03;;;;;;;41.50;16.00;;;15.50;99.90;;;;;;4967247;28;20605;-81
2023/05/09 06:15:30;;;;;;;26.00;14.43;;;15.60;99.90;;;;;;4967915;28;20185;-82
2023/05/09 06:17:55;;;;;;;36.77;14.93;;;15.60;99.90;;;;;;4966488;28;20228;-84
2023/05/09 06:20:21;;;;;;;30.23;14.23;;;15.70;99.90;;;;;;4951263;28;20367;-82
2023/05/09 06:22:47;;;;;;;32.33;13.63;;;15.90;99.90;;;;;;4967312;28;20220;-84
2023/05/09 06:25:13;;;;;;;30.80;15.70;;;15.90;99.90;;;;;;4951368;28;20609;-83
2023/05/09 06:27:38;;;;;;;38.20;16.33;;;16.00;99.90;;;;;;4950886;28;20283;-84
2023/05/09 06:30:05;;;;;;;32.47;14.50;;;16.00;99.90;;;;;;4966963;28;20217;-83
2023/05/09 06:32:31;;;;;;;30.00;15.10;;;16.00;99.90;;;;;;4951978;28;20838;-84
2023/05/09 06:34:56;;;;;;;38.80;16.17;;;16.00;99.90;;;;;;4951573;28;20228;-83
2023/05/09 06:37:22;;;;;;;29.10;13.87;;;16.00;99.90;;;;;;4966594;28;20787;-83
2023/05/09 06:39:49;;;;;;;32.83;13.90;;;16.10;99.90;;;;;;4951669;28;20277;-82
2023/05/09 06:42:15;;;;;;;29.13;12.30;;;16.10;99.90;;;;;;4966259;28;20244;-83
2023/05/09 06:44:42;;;;;;;33.47;14.07;;;16.00;99.90;;;;;;4967158;28;20691;-81
2023/05/09 06:47:08;;;;;;;33.40;15.13;;;16.00;99.90;;;;;;4967205;28;20220;-83
2023/05/09 06:49:34;;;;;;;31.13;15.63;;;16.10;99.90;;;;;;4968864;28;20363;-82
2023/05/09 06:52:00;;;;;;;32.13;13.63;;;16.20;99.90;;;;;;4968122;28;20750;-82
2023/05/09 06:54:26;;;;;;;28.63;13.63;;;16.10;99.90;;;;;;4952308;28;20185;-82
2023/05/09 06:56:52;;;;;;;31.13;15.10;;;16.20;99.90;;;;;;4948248;28;20279;-82
2023/05/09 06:59:17;;;;;;;36.23;14.37;;;16.30;99.90;;;;;;4949617;28;20834;-82
2023/05/09 07:01:43;;;;;;;30.87;14.77;;;16.30;99.90;;;;;;4965592;28;20217;-83
2023/05/09 07:04:09;;;;;;;37.50;14.23;;;16.40;99.90;;;;;;4965778;28;20228;-84
2023/05/09 07:06:35;;;;;;;35.63;14.33;;;16.40;99.90;;;;;;4966612;28;20535;-83
2023/05/09 07:09:01;;;;;;;33.23;15.73;;;16.40;99.90;;;;;;4965834;28;20225;-83
2023/05/09 07:11:36;;;;;;;35.97;13.10;;;16.50;99.90;;;;;;4965573;28;20221;-84
2023/05/09 07:14:02;;;;;;;31.47;16.10;;;16.60;99.90;;;;;;4965941;28;20215;-84
2023/05/09 07:16:28;;;;;;;35.07;15.40;;;16.60;99.90;;;;;;4949645;28;20231;-83
2023/05/09 07:18:55;;;;;;;34.40;15.03;;;16.70;99.90;;;;;;4965883;28;20212;-83
2023/05/09 07:21:20;;;;;;;35.80;16.07;;;16.80;99.90;;;;;;4968683;28;20188;-83
2023/05/09 07:23:46;;;;;;;34.53;15.97;;;16.70;99.90;;;;;;4966535;28;20777;-85
2023/05/09 07:26:12;;;;;;;41.47;17.07;;;16.70;99.90;;;;;;4950745;28;20228;-83
2023/05/09 07:28:38;;;;;;;29.27;14.33;;;16.70;99.90;;;;;;4950444;28;20227;-85
2023/05/09 07:31:04;;;;;;;37.60;13.83;;;16.70;99.90;;;;;;4950447;28;20181;-83
2023/05/09 07:33:30;;;;;;;30.13;15.57;;;16.70;99.90;;;;;;4968294;28;20268;-83
2023/05/09 07:36:00;;;;;;;22.50;11.50;;;16.70;99.90;;;;;;4966738;28;20279;-86
2023/05/09 07:38:25;;;;;;;38.47;16.87;;;16.70;99.90;;;;;;4950543;28;20278;-83
2023/05/09 07:40:54;;;;;;;27.43;13.63;;;16.60;99.90;;;;;;4966762;28;20264;-86
2023/05/09 07:43:19;;;;;;;31.03;14.10;;;16.50;99.90;;;;;;4950712;28;20217;-84
2023/05/09 07:45:45;;;;;;;34.17;15.33;;;16.40;99.90;;;;;;4966772;28;20574;-82
2023/05/09 07:48:11;;;;;;;31.70;14.80;;;16.30;99.90;;;;;;4949984;28;20226;-84
2023/05/09 07:50:38;;;;;;;28.80;14.73;;;16.40;99.90;;;;;;4966419;28;20217;-84
2023/05/09 07:53:04;;;;;;;31.70;14.60;;;16.50;99.90;;;;;;4969902;28;20243;-83
2023/05/09 07:55:30;;;;;;;26.43;13.33;;;16.50;99.90;;;;;;4970365;28;20306;-83
2023/05/09 07:57:56;;;;;;;30.10;13.23;;;16.50;99.90;;;;;;4954403;28;20209;-83
2023/05/09 08:00:22;;;;;;;30.97;13.33;;;16.50;99.90;;;;;;4972312;28;20268;-85
2023/05/09 08:02:50;;;;;;;29.50;12.50;;;16.50;99.90;;;;;;4972011;28;20221;-83
2023/05/09 08:05:19;;;;;;;27.27;13.83;;;16.40;99.90;;;;;;4971816;28;20212;-83
2023/05/09 08:07:45;;;;;;;28.57;13.37;;;16.50;99.90;;;;;;4971737;28;20232;-83
2023/05/09 08:10:11;;;;;;;30.20;13.87;;;16.60;99.90;;;;;;4954332;28;20672;-84
2023/05/09 08:12:36;;;;;;;36.03;15.57;;;16.60;99.90;;;;;;4971510;28;20186;-83
2023/05/09 08:15:03;;;;;;;35.20;14.27;;;16.60;99.90;;;;;;4970459;28;20233;-84
2023/05/09 08:17:28;;;;;;;24.47;14.00;;;16.50;99.90;;;;;;4970338;28;20303;-83
2023/05/09 08:19:54;;;;;;;32.07;14.10;;;16.50;99.90;;;;;;4954360;28;20691;-84
2023/05/09 08:22:20;;;;;;;31.30;13.30;;;16.40;99.90;;;;;;4970425;28;20224;-84
2023/05/09 08:24:47;;;;;;;33.10;15.03;;;16.60;99.90;;;;;;4970583;28;20184;-84
2023/05/09 08:27:14;;;;;;;29.33;14.67;;;16.60;99.90;;;;;;4970345;28;20303;-85
2023/05/09 08:29:40;;;;;;;32.83;13.43;;;16.50;99.90;;;;;;4969995;28;20247;-83
2023/05/09 08:32:07;;;;;;;30.33;13.23;;;16.60;99.90;;;;;;4969975;28;20240;-85
2023/05/09 08:34:33;;;;;;;30.93;12.67;;;16.60;99.90;;;;;;4953873;28;20216;-83
2023/05/09 08:37:03;;;;;;;32.23;10.43;;;16.70;99.90;;;;;;4969084;28;20279;-85
2023/05/09 08:39:29;;;;;;;29.93;11.30;;;16.80;99.90;;;;;;4970856;28;20211;-85
2023/05/09 08:41:59;;;;;;;26.87;15.23;;;17.00;99.90;;;;;;4969735;28;20311;-84
2023/05/09 08:44:27;;;;;;;28.50;13.23;;;17.10;99.90;;;;;;4970569;28;20220;-84
2023/05/09 08:46:57;;;;;;;27.77;13.37;;;17.10;99.90;;;;;;4969308;28;20217;-84
2023/05/09 08:49:23;;;;;;;24.90;12.17;;;17.10;99.90;;;;;;4969405;28;20240;-84
2023/05/09 08:51:49;;;;;;;22.00;11.97;;;17.20;99.90;;;;;;4969551;28;20228;-85
2023/05/09 08:54:15;;;;;;;25.50;12.40;;;17.20;99.90;;;;;;4970613;28;20300;-84
2023/05/09 08:56:42;;;;;;;23.13;11.60;;;17.30;99.90;;;;;;4969073;28;20331;-85
2023/05/09 08:59:08;;;;;;;25.07;12.50;;;17.40;99.90;;;;;;4968863;28;20239;-84
2023/05/09 09:01:34;;;;;;;23.63;12.10;;;17.50;99.90;;;;;;4953385;28;20208;-85
2023/05/09 09:04:04;;;;;;;24.57;10.63;;;17.40;99.90;;;;;;4952736;28;20181;-84
2023/05/09 09:06:32;;;;;;;26.37;10.57;;;17.20;99.90;;;;;;4969418;28;20285;-85
2023/05/09 09:08:59;;;;;;;22.00;10.70;;;17.20;99.90;;;;;;4970217;28;20227;-84
2023/05/09 09:11:27;;;;;;;23.63;8.97;;;17.10;99.90;;;;;;4970070;28;20217;-84
2023/05/09 09:13:54;;;;;;;20.53;10.40;;;17.10;99.90;;;;;;4968795;28;20308;-84
2023/05/09 09:16:24;;;;;;;22.80;9.77;;;17.50;99.90;;;;;;4968755;28;20216;-83
2023/05/09 09:18:52;;;;;;;21.40;10.40;;;17.50;99.90;;;;;;4968853;28;20836;-84
2023/05/09 09:21:19;;;;;;;20.30;10.67;;;17.70;99.90;;;;;;4953609;28;20185;-83
2023/05/09 09:23:46;;;;;;;22.93;10.37;;;17.50;99.90;;;;;;4970546;28;20220;-83
2023/05/09 09:26:13;;;;;;;25.17;11.70;;;17.60;99.90;;;;;;4968858;28;20221;-84
2023/05/09 09:28:39;;;;;;;25.03;9.30;;;17.70;99.90;;;;;;4969548;28;20221;-85
2023/05/09 09:31:22;;;;;;;26.80;12.00;;;17.90;99.90;;;;;;4968778;28;20264;-85
2023/05/09 09:33:49;;;;;;;19.70;9.70;;;18.00;99.90;;;;;;4969626;28;20212;-83
2023/05/09 09:36:15;;;;;;;19.20;8.37;;;18.10;99.90;;;;;;4969056;28;20745;-82
2023/05/09 09:38:44;;;;;;;16.87;8.93;;;18.20;99.90;;;;;;4936810;28;20221;-84
2023/05/09 09:41:11;;;;;;;22.63;8.97;;;18.20;99.90;;;;;;4970052;28;20286;-84
2023/05/09 09:43:37;;;;;;;20.63;11.00;;;18.20;99.90;;;;;;4968858;28;20216;-83
2023/05/09 09:46:04;;;;;;;22.50;10.17;;;18.20;99.90;;;;;;4968498;28;20557;-83
2023/05/09 09:48:32;;;;;;;16.77;9.60;;;18.20;99.90;;;;;;4970137;28;20342;-83
2023/05/09 09:51:11;;;;;;;18.97;8.97;;;18.10;99.90;;;;;;4969158;28;20224;-83
2023/05/09 09:53:41;;;;;;;22.13;10.80;;;18.00;99.90;;;;;;4969510;28;20306;-83
2023/05/09 09:56:07;;;;;;;25.27;11.53;;;18.10;99.90;;;;;;4952461;28;20224;-84
2023/05/09 09:58:33;;;;;;;17.87;10.40;;;18.20;99.90;;;;;;4969162;28;20263;-83
2023/05/09 10:01:09;;;;;;;24.07;9.90;;;18.40;99.90;;;;;;4968462;28;20196;-84
2023/05/09 10:03:39;;;;;;;19.03;10.03;;;17.90;99.90;;;;;;4953720;28;20168;-85
2023/05/09 10:06:10;;;;;;;19.37;9.97;;;18.00;99.90;;;;;;4953278;28;20221;-85
2023/05/09 10:08:35;;;;;;;21.87;9.80;;;18.00;99.90;;;;;;4969589;28;20225;-84
2023/05/09 10:11:01;;;;;;;16.67;8.83;;;18.00;99.90;;;;;;4952897;28;20721;-85
2023/05/09 10:13:27;;;;;;;14.33;7.70;;;17.90;99.90;;;;;;4968463;28;20217;-85
2023/05/09 10:15:56;;;;;;;16.93;9.90;;;17.90;99.90;;;;;;4967562;28;20192;-86
2023/05/09 10:18:29;;;;;;;17.77;7.77;;;17.90;99.90;;;;;;4969486;28;20212;-87
2023/05/09 10:20:59;;;;;;;17.93;8.83;;;17.90;99.90;;;;;;4969517;28;20435;-85
2023/05/09 10:23:27;;;;;;;18.03;9.10;;;17.70;99.90;;;;;;4969130;28;20318;-84
2023/05/09 10:26:14;;;;;;;14.87;8.80;;;17.70;99.90;;;;;;4951787;28;20681;-82
2023/05/09 10:28:43;;;;;;;22.63;9.03;;;17.80;99.90;;;;;;4968793;28;20220;-82
2023/05/09 10:31:17;;;;;;;17.77;7.40;;;17.70;99.90;;;;;;4968548;28;20662;-83
2023/05/09 10:33:47;;;;;;;17.20;8.13;;;17.70;99.90;;;;;;4967853;28;20669;-83
2023/05/09 10:36:17;;;;;;;16.47;8.33;;;17.70;99.90;;;;;;4967560;28;20343;-82
2023/05/09 10:38:43;;;;;;;16.97;8.47;;;17.70;99.90;;;;;;4967268;28;20332;-83
2023/05/09 10:41:11;;;;;;;13.87;9.13;;;17.60;99.90;;;;;;4951605;28;20230;-83
2023/05/09 10:43:36;;;;;;;14.13;9.10;;;17.50;99.90;;;;;;4967016;28;20238;-84
2023/05/09 10:46:03;;;;;;;14.37;7.93;;;17.20;99.90;;;;;;4950846;28;20704;-82
2023/05/09 10:48:31;;;;;;;11.37;8.37;;;17.10;99.90;;;;;;4967604;28;20280;-83
2023/05/09 10:51:01;;;;;;;15.23;9.07;;;17.00;99.90;;;;;;4968274;28;20296;-83
2023/05/09 10:53:41;;;;;;;19.17;8.73;;;17.00;99.90;;;;;;4951343;28;20236;-83
2023/05/09 10:56:07;;;;;;;17.83;9.07;;;17.10;99.90;;;;;;4967088;28;20636;-82
2023/05/09 10:58:39;;;;;;;13.70;8.03;;;17.20;99.90;;;;;;4934806;28;20319;-82
2023/05/09 11:01:05;;;;;;;16.27;9.20;;;17.30;99.90;;;;;;4968475;28;20180;-83
2023/05/09 11:03:51;;;;;;;13.53;6.57;;;17.20;99.90;;;;;;4967674;28;20192;-83
2023/05/09 11:06:51;;;;;;;7.87;5.67;;;17.00;99.90;;;;;;4966596;28;20205;-84
2023/05/09 11:09:27;;;;;;;9.00;6.23;;;16.80;99.90;;;;;;4965837;28;20283;-83
2023/05/09 11:11:56;;;;;;;6.10;3.87;;;16.80;99.90;;;;;;4965846;28;20785;-83
2023/05/09 11:14:38;;;;;;;10.10;5.07;;;16.60;99.90;;;;;;4965592;28;20247;-83
2023/05/09 11:17:07;;;;;;;7.90;6.00;;;16.80;99.90;;;;;;4965250;28;20630;-82
2023/05/09 11:19:35;;;;;;;11.47;6.37;;;17.00;99.90;;;;;;4965135;28;20307;-83
2023/05/09 11:22:11;;;;;;;8.80;5.10;;;17.10;99.90;;;;;;4965377;28;20268;-83
2023/05/09 11:24:37;;;;;;;9.27;5.67;;;17.00;99.90;;;;;;4966077;28;20175;-84
2023/05/09 11:27:20;;;;;;;8.53;4.97;;;17.00;99.90;;;;;;4967012;28;20216;-83
2023/05/09 11:29:51;;;;;;;13.43;5.43;;;16.80;99.90;;;;;;4969839;28;20220;-82
2023/05/09 11:32:19;;;;;;;8.57;4.90;;;16.70;99.90;;;;;;4971061;28;20219;-83
2023/05/09 11:34:46;;;;;;;10.67;5.17;;;16.70;99.90;;;;;;4969427;28;20216;-83
2023/05/09 11:37:15;;;;;;;7.00;4.87;;;16.70;99.90;;;;;;4953543;28;20220;-85
2023/05/09 11:39:58;;;;;;;8.03;4.97;;;16.60;99.90;;;;;;4968841;28;20693;-82
2023/05/09 11:42:26;;;;;;;11.37;5.27;;;16.60;99.90;;;;;;4953605;28;20312;-83
2023/05/09 11:44:53;;;;;;;9.83;5.53;;;16.60;99.90;;;;;;4954202;28;20236;-83
2023/05/09 11:47:20;;;;;;;8.87;5.33;;;16.60;99.90;;;;;;4969708;28;20654;-84
2023/05/09 11:49:47;;;;;;;13.23;7.00;;;16.60;99.90;;;;;;4969927;28;20224;-82
2023/05/09 11:52:13;;;;;;;11.50;5.87;;;16.60;99.90;;;;;;4970476;28;20239;-82
2023/05/09 11:54:39;;;;;;;8.40;5.40;;;16.70;99.90;;;;;;4954228;28;20362;-82
2023/05/09 11:57:06;;;;;;;12.97;6.40;;;16.60;99.90;;;;;;4954222;28;20283;-80
2023/05/09 11:59:37;;;;;;;9.23;6.13;;;16.60;99.90;;;;;;4954051;28;20277;-79
2023/05/09 12:02:06;;;;;;;10.57;5.90;;;16.60;99.90;;;;;;4970790;28;20286;-81
2023/05/09 12:04:32;;;;;;;7.83;5.73;;;16.60;99.90;;;;;;4970650;28;20279;-80
2023/05/09 12:06:59;;;;;;;11.17;6.30;;;16.50;99.90;;;;;;4969873;28;20180;-81
2023/05/09 12:09:32;;;;;;;9.83;5.43;;;16.60;99.90;;;;;;4965899;28;20193;-82
2023/05/09 12:12:07;;;;;;;10.80;6.37;;;16.80;99.90;;;;;;4967790;28;20213;-82
2023/05/09 12:14:33;;;;;;;8.50;5.53;;;16.90;99.90;;;;;;4953904;28;20215;-81
2023/05/09 12:17:00;;;;;;;10.53;5.60;;;16.90;99.90;;;;;;4936567;28;20224;-81
2023/05/09 12:19:27;;;;;;;8.37;6.10;;;17.00;99.90;;;;;;4968781;28;20233;-81
2023/05/09 12:21:57;;;;;;;10.53;5.37;;;17.00;99.90;;;;;;4967210;28;20176;-81
2023/05/09 12:24:26;;;;;;;7.13;4.43;;;16.90;99.90;;;;;;4970898;28;20216;-80
2023/05/09 12:26:53;;;;;;;7.37;5.47;;;16.80;99.90;;;;;;4954032;28;20312;-81
2023/05/09 12:29:24;;;;;;;7.10;4.30;;;16.70;99.90;;;;;;4969209;28;20224;-81
2023/05/09 12:31:52;;;;;;;7.17;4.87;;;16.80;99.90;;;;;;4953244;28;20669;-80
2023/05/09 12:34:18;;;;;;;8.57;5.57;;;16.80;99.90;;;;;;4970563;28;20799;-81
2023/05/09 12:36:52;;;;;;;8.87;5.00;;;16.80;99.90;;;;;;4969840;28;20188;-80